sensor_id;sensor_type;location;lat;lon;timestamp;P1;durP1;ratioP1;P2;durP2;ratioP2
30605;SDS011;17371;51.328;3.860;2022-08-14T00:00:33;4.33;;;3.47;;
30605;SDS011;17371;51.328;3.860;2022-08-14T00:02:58;7.10;;;3.83;;
30605;SDS011;17371;51.328;3.860;2022-08-14T00:05:25;7.00;;;3.70;;
30605;SDS011;17371;51.328;3.860;2022-08-14T00:07:50;5.90;;;4.03;;
30605;SDS011;17371;51.328;3.860;2022-08-14T00:10:17;4.70;;;3.77;;
30605;SDS011;17371;51.328;3.860;2022-08-14T00:12:45;5.68;;;4.03;;
30605;SDS011;17371;51.328;3.860;2022-08-14T00:15:12;6.88;;;3.75;;
30605;SDS011;17371;51.328;3.860;2022-08-14T00:17:39;6.47;;;3.80;;
30605;SDS011;17371;51.328;3.860;2022-08-14T00:20:05;5.70;;;3.70;;
30605;SDS011;17371;51.328;3.860;2022-08-14T00:22:33;6.57;;;4.18;;
30605;SDS011;17371;51.328;3.860;2022-08-14T00:24:58;6.65;;;4.00;;
30605;SDS011;17371;51.328;3.860;2022-08-14T00:27:23;5.70;;;3.93;;
30605;SDS011;17371;51.328;3.860;2022-08-14T00:29:49;4.97;;;3.70;;
30605;SDS011;17371;51.328;3.860;2022-08-14T00:32:14;7.23;;;3.70;;
30605;SDS011;17371;51.328;3.860;2022-08-14T00:34:40;7.27;;;3.63;;
30605;SDS011;17371;51.328;3.860;2022-08-14T00:37:05;8.15;;;3.70;;
30605;SDS011;17371;51.328;3.860;2022-08-14T00:39:32;5.37;;;3.50;;
30605;SDS011;17371;51.328;3.860;2022-08-14T00:41:57;11.27;;;3.60;;
30605;SDS011;17371;51.328;3.860;2022-08-14T00:44:23;6.60;;;3.77;;
30605;SDS011;17371;51.328;3.860;2022-08-14T00:46:48;10.93;;;3.53;;
30605;SDS011;17371;51.328;3.860;2022-08-14T00:49:13;5.00;;;3.43;;
30605;SDS011;17371;51.328;3.860;2022-08-14T00:51:39;6.03;;;3.70;;
30605;SDS011;17371;51.328;3.860;2022-08-14T00:54:05;7.77;;;4.20;;
30605;SDS011;17371;51.328;3.860;2022-08-14T00:56:32;5.22;;;4.13;;
30605;SDS011;17371;51.328;3.860;2022-08-14T00:58:57;6.57;;;4.78;;
30605;SDS011;17371;51.328;3.860;2022-08-14T01:01:23;8.17;;;4.93;;
30605;SDS011;17371;51.328;3.860;2022-08-14T01:03:48;6.87;;;5.00;;
30605;SDS011;17371;51.328;3.860;2022-08-14T01:06:14;7.07;;;4.80;;
30605;SDS011;17371;51.328;3.860;2022-08-14T01:08:40;5.70;;;4.50;;
30605;SDS011;17371;51.328;3.860;2022-08-14T01:11:05;6.53;;;4.83;;
30605;SDS011;17371;51.328;3.860;2022-08-14T01:13:32;5.90;;;5.03;;
30605;SDS011;17371;51.328;3.860;2022-08-14T01:15:59;12.07;;;5.30;;
30605;SDS011;17371;51.328;3.860;2022-08-14T01:18:27;7.93;;;5.60;;
30605;SDS011;17371;51.328;3.860;2022-08-14T01:20:54;8.85;;;5.50;;
30605;SDS011;17371;51.328;3.860;2022-08-14T01:23:21;9.30;;;5.10;;
30605;SDS011;17371;51.328;3.860;2022-08-14T01:25:47;7.90;;;5.18;;
30605;SDS011;17371;51.328;3.860;2022-08-14T01:28:13;7.25;;;5.28;;
30605;SDS011;17371;51.328;3.860;2022-08-14T01:30:38;5.82;;;5.00;;
30605;SDS011;17371;51.328;3.860;2022-08-14T01:33:04;7.95;;;5.15;;
30605;SDS011;17371;51.328;3.860;2022-08-14T01:35:30;7.40;;;5.00;;
30605;SDS011;17371;51.328;3.860;2022-08-14T01:37:55;9.25;;;5.70;;
30605;SDS011;17371;51.328;3.860;2022-08-14T01:40:22;7.07;;;5.10;;
30605;SDS011;17371;51.328;3.860;2022-08-14T01:42:48;8.68;;;5.22;;
30605;SDS011;17371;51.328;3.860;2022-08-14T01:45:14;8.47;;;5.13;;
30605;SDS011;17371;51.328;3.860;2022-08-14T01:47:39;8.03;;;5.20;;
30605;SDS011;17371;51.328;3.860;2022-08-14T01:50:05;10.00;;;5.47;;
30605;SDS011;17371;51.328;3.860;2022-08-14T01:52:31;6.40;;;5.47;;
30605;SDS011;17371;51.328;3.860;2022-08-14T01:54:57;7.83;;;5.70;;
30605;SDS011;17371;51.328;3.860;2022-08-14T01:57:24;8.93;;;5.53;;
30605;SDS011;17371;51.328;3.860;2022-08-14T01:59:49;8.13;;;5.37;;
30605;SDS011;17371;51.328;3.860;2022-08-14T02:02:15;7.85;;;5.68;;
30605;SDS011;17371;51.328;3.860;2022-08-14T02:04:40;6.90;;;5.35;;
30605;SDS011;17371;51.328;3.860;2022-08-14T02:07:06;8.20;;;5.57;;
30605;SDS011;17371;51.328;3.860;2022-08-14T02:09:32;8.70;;;5.78;;
30605;SDS011;17371;51.328;3.860;2022-08-14T02:11:57;8.50;;;5.93;;
30605;SDS011;17371;51.328;3.860;2022-08-14T02:14:24;9.03;;;5.10;;
30605;SDS011;17371;51.328;3.860;2022-08-14T02:16:50;10.32;;;5.60;;
30605;SDS011;17371;51.328;3.860;2022-08-14T02:19:16;7.57;;;5.70;;
30605;SDS011;17371;51.328;3.860;2022-08-14T02:21:43;11.25;;;5.95;;
30605;SDS011;17371;51.328;3.860;2022-08-14T02:24:11;7.68;;;5.93;;
30605;SDS011;17371;51.328;3.860;2022-08-14T02:26:38;9.75;;;5.80;;
30605;SDS011;17371;51.328;3.860;2022-08-14T02:29:05;10.33;;;6.37;;
30605;SDS011;17371;51.328;3.860;2022-08-14T02:31:36;13.57;;;6.50;;
30605;SDS011;17371;51.328;3.860;2022-08-14T02:34:03;11.75;;;6.13;;
30605;SDS011;17371;51.328;3.860;2022-08-14T02:36:30;9.02;;;6.93;;
30605;SDS011;17371;51.328;3.860;2022-08-14T02:38:55;9.13;;;6.97;;
30605;SDS011;17371;51.328;3.860;2022-08-14T02:41:20;13.50;;;7.00;;
30605;SDS011;17371;51.328;3.860;2022-08-14T02:43:46;13.57;;;7.70;;
30605;SDS011;17371;51.328;3.860;2022-08-14T02:46:11;11.93;;;7.80;;
30605;SDS011;17371;51.328;3.860;2022-08-14T02:48:40;11.18;;;7.22;;
30605;SDS011;17371;51.328;3.860;2022-08-14T02:51:08;13.45;;;7.50;;
30605;SDS011;17371;51.328;3.860;2022-08-14T02:53:35;15.23;;;8.63;;
30605;SDS011;17371;51.328;3.860;2022-08-14T02:56:01;8.87;;;7.30;;
30605;SDS011;17371;51.328;3.860;2022-08-14T02:58:28;11.52;;;7.50;;
30605;SDS011;17371;51.328;3.860;2022-08-14T03:00:54;9.90;;;7.25;;
30605;SDS011;17371;51.328;3.860;2022-08-14T03:03:19;11.47;;;8.03;;
30605;SDS011;17371;51.328;3.860;2022-08-14T03:05:46;10.23;;;7.80;;
30605;SDS011;17371;51.328;3.860;2022-08-14T03:08:13;11.35;;;7.60;;
30605;SDS011;17371;51.328;3.860;2022-08-14T03:10:38;10.68;;;7.35;;
30605;SDS011;17371;51.328;3.860;2022-08-14T03:13:04;13.97;;;7.63;;
30605;SDS011;17371;51.328;3.860;2022-08-14T03:15:29;9.80;;;7.57;;
30605;SDS011;17371;51.328;3.860;2022-08-14T03:17:55;12.32;;;8.00;;
30605;SDS011;17371;51.328;3.860;2022-08-14T03:20:20;11.47;;;7.90;;
30605;SDS011;17371;51.328;3.860;2022-08-14T03:22:47;13.37;;;8.10;;
30605;SDS011;17371;51.328;3.860;2022-08-14T03:25:12;12.25;;;8.48;;
30605;SDS011;17371;51.328;3.860;2022-08-14T03:27:38;13.60;;;8.90;;
30605;SDS011;17371;51.328;3.860;2022-08-14T03:30:04;11.52;;;8.52;;
30605;SDS011;17371;51.328;3.860;2022-08-14T03:32:31;11.07;;;8.68;;
30605;SDS011;17371;51.328;3.860;2022-08-14T03:34:57;10.93;;;9.02;;
30605;SDS011;17371;51.328;3.860;2022-08-14T03:37:22;14.37;;;9.93;;
30605;SDS011;17371;51.328;3.860;2022-08-14T03:39:49;15.07;;;9.33;;
30605;SDS011;17371;51.328;3.860;2022-08-14T03:42:16;11.93;;;9.02;;
30605;SDS011;17371;51.328;3.860;2022-08-14T03:44:41;12.17;;;9.13;;
30605;SDS011;17371;51.328;3.860;2022-08-14T03:47:07;14.30;;;9.57;;
30605;SDS011;17371;51.328;3.860;2022-08-14T03:49:32;15.80;;;10.00;;
30605;SDS011;17371;51.328;3.860;2022-08-14T03:51:57;11.27;;;9.43;;
30605;SDS011;17371;51.328;3.860;2022-08-14T03:54:23;10.75;;;9.52;;
30605;SDS011;17371;51.328;3.860;2022-08-14T03:56:50;12.30;;;9.63;;
30605;SDS011;17371;51.328;3.860;2022-08-14T03:59:15;12.98;;;10.05;;
30605;SDS011;17371;51.328;3.860;2022-08-14T04:01:40;13.63;;;10.30;;
30605;SDS011;17371;51.328;3.860;2022-08-14T04:04:07;15.00;;;10.47;;
30605;SDS011;17371;51.328;3.860;2022-08-14T04:06:34;12.23;;;9.93;;
30605;SDS011;17371;51.328;3.860;2022-08-14T04:09:00;14.32;;;10.27;;
30605;SDS011;17371;51.328;3.860;2022-08-14T04:11:25;13.43;;;10.17;;
30605;SDS011;17371;51.328;3.860;2022-08-14T04:13:52;14.10;;;10.25;;
30605;SDS011;17371;51.328;3.860;2022-08-14T04:16:19;12.90;;;9.77;;
30605;SDS011;17371;51.328;3.860;2022-08-14T04:18:48;11.88;;;9.98;;
30605;SDS011;17371;51.328;3.860;2022-08-14T04:21:14;14.15;;;10.60;;
30605;SDS011;17371;51.328;3.860;2022-08-14T04:23:40;15.05;;;10.45;;
30605;SDS011;17371;51.328;3.860;2022-08-14T04:26:08;12.43;;;10.30;;
30605;SDS011;17371;51.328;3.860;2022-08-14T04:28:35;12.18;;;10.50;;
30605;SDS011;17371;51.328;3.860;2022-08-14T04:31:02;12.70;;;10.50;;
30605;SDS011;17371;51.328;3.860;2022-08-14T04:33:28;13.20;;;10.95;;
30605;SDS011;17371;51.328;3.860;2022-08-14T04:35:53;13.23;;;11.33;;
30605;SDS011;17371;51.328;3.860;2022-08-14T04:38:19;17.43;;;11.13;;
30605;SDS011;17371;51.328;3.860;2022-08-14T04:40:45;14.70;;;11.73;;
30605;SDS011;17371;51.328;3.860;2022-08-14T04:43:11;15.87;;;11.50;;
30605;SDS011;17371;51.328;3.860;2022-08-14T04:45:36;13.75;;;10.75;;
30605;SDS011;17371;51.328;3.860;2022-08-14T04:48:05;14.83;;;10.70;;
30605;SDS011;17371;51.328;3.860;2022-08-14T04:50:31;15.32;;;11.70;;
30605;SDS011;17371;51.328;3.860;2022-08-14T04:52:57;14.23;;;11.73;;
30605;SDS011;17371;51.328;3.860;2022-08-14T04:55:22;13.43;;;11.27;;
30605;SDS011;17371;51.328;3.860;2022-08-14T04:57:48;15.73;;;11.97;;
30605;SDS011;17371;51.328;3.860;2022-08-14T05:00:13;15.80;;;11.93;;
30605;SDS011;17371;51.328;3.860;2022-08-14T05:02:39;15.55;;;12.00;;
30605;SDS011;17371;51.328;3.860;2022-08-14T05:05:06;15.07;;;12.57;;
30605;SDS011;17371;51.328;3.860;2022-08-14T05:07:31;16.00;;;11.55;;
30605;SDS011;17371;51.328;3.860;2022-08-14T05:09:57;14.70;;;11.77;;
30605;SDS011;17371;51.328;3.860;2022-08-14T05:12:22;16.53;;;11.80;;
30605;SDS011;17371;51.328;3.860;2022-08-14T05:14:48;18.90;;;12.77;;
30605;SDS011;17371;51.328;3.860;2022-08-14T05:17:13;16.27;;;12.17;;
30605;SDS011;17371;51.328;3.860;2022-08-14T05:19:38;16.43;;;11.77;;
30605;SDS011;17371;51.328;3.860;2022-08-14T05:22:05;19.07;;;12.27;;
30605;SDS011;17371;51.328;3.860;2022-08-14T05:24:31;15.52;;;12.07;;
30605;SDS011;17371;51.328;3.860;2022-08-14T05:26:57;16.45;;;12.63;;
30605;SDS011;17371;51.328;3.860;2022-08-14T05:29:22;17.27;;;12.20;;
30605;SDS011;17371;51.328;3.860;2022-08-14T05:31:48;16.50;;;11.83;;
30605;SDS011;17371;51.328;3.860;2022-08-14T05:34:13;15.90;;;12.03;;
30605;SDS011;17371;51.328;3.860;2022-08-14T05:36:38;15.43;;;12.00;;
30605;SDS011;17371;51.328;3.860;2022-08-14T05:39:05;15.33;;;11.53;;
30605;SDS011;17371;51.328;3.860;2022-08-14T05:41:31;14.05;;;11.55;;
30605;SDS011;17371;51.328;3.860;2022-08-14T05:43:56;14.23;;;11.33;;
30605;SDS011;17371;51.328;3.860;2022-08-14T05:46:21;14.40;;;11.17;;
30605;SDS011;17371;51.328;3.860;2022-08-14T05:48:47;12.00;;;10.67;;
30605;SDS011;17371;51.328;3.860;2022-08-14T05:51:13;14.63;;;10.88;;
30605;SDS011;17371;51.328;3.860;2022-08-14T05:53:38;13.73;;;11.40;;
30605;SDS011;17371;51.328;3.860;2022-08-14T05:56:05;13.20;;;10.85;;
30605;SDS011;17371;51.328;3.860;2022-08-14T05:58:31;13.43;;;10.93;;
30605;SDS011;17371;51.328;3.860;2022-08-14T06:00:56;12.73;;;10.65;;
30605;SDS011;17371;51.328;3.860;2022-08-14T06:03:22;15.00;;;10.80;;
30605;SDS011;17371;51.328;3.860;2022-08-14T06:05:48;13.03;;;10.63;;
30605;SDS011;17371;51.328;3.860;2022-08-14T06:08:15;14.60;;;10.35;;
30605;SDS011;17371;51.328;3.860;2022-08-14T06:10:41;12.77;;;10.57;;
30605;SDS011;17371;51.328;3.860;2022-08-14T06:13:09;11.70;;;10.13;;
30605;SDS011;17371;51.328;3.860;2022-08-14T06:15:34;18.08;;;10.27;;
30605;SDS011;17371;51.328;3.860;2022-08-14T06:18:00;12.47;;;9.90;;
30605;SDS011;17371;51.328;3.860;2022-08-14T06:20:25;13.38;;;9.85;;
30605;SDS011;17371;51.328;3.860;2022-08-14T06:22:51;12.02;;;9.13;;
30605;SDS011;17371;51.328;3.860;2022-08-14T06:25:17;13.38;;;10.00;;
30605;SDS011;17371;51.328;3.860;2022-08-14T06:27:43;11.80;;;8.60;;
30605;SDS011;17371;51.328;3.860;2022-08-14T06:30:12;12.20;;;8.40;;
30605;SDS011;17371;51.328;3.860;2022-08-14T06:32:39;12.98;;;8.63;;
30605;SDS011;17371;51.328;3.860;2022-08-14T06:35:06;12.18;;;7.95;;
30605;SDS011;17371;51.328;3.860;2022-08-14T06:37:40;10.18;;;7.93;;
30605;SDS011;17371;51.328;3.860;2022-08-14T06:40:06;14.57;;;7.90;;
30605;SDS011;17371;51.328;3.860;2022-08-14T06:42:33;13.23;;;8.35;;
30605;SDS011;17371;51.328;3.860;2022-08-14T06:44:58;13.50;;;7.93;;
30605;SDS011;17371;51.328;3.860;2022-08-14T06:47:25;14.20;;;7.53;;
30605;SDS011;17371;51.328;3.860;2022-08-14T06:49:50;11.00;;;7.10;;
30605;SDS011;17371;51.328;3.860;2022-08-14T06:52:16;10.55;;;7.10;;
30605;SDS011;17371;51.328;3.860;2022-08-14T06:54:41;10.80;;;6.53;;
30605;SDS011;17371;51.328;3.860;2022-08-14T06:57:07;8.30;;;6.30;;
30605;SDS011;17371;51.328;3.860;2022-08-14T06:59:32;10.67;;;6.30;;
30605;SDS011;17371;51.328;3.860;2022-08-14T07:01:58;11.77;;;6.97;;
30605;SDS011;17371;51.328;3.860;2022-08-14T07:04:24;11.27;;;6.45;;
30605;SDS011;17371;51.328;3.860;2022-08-14T07:06:50;13.10;;;6.50;;
30605;SDS011;17371;51.328;3.860;2022-08-14T07:09:16;10.30;;;6.20;;
30605;SDS011;17371;51.328;3.860;2022-08-14T07:11:42;15.07;;;6.33;;
30605;SDS011;17371;51.328;3.860;2022-08-14T07:14:07;11.50;;;6.03;;
30605;SDS011;17371;51.328;3.860;2022-08-14T07:16:32;10.57;;;5.60;;
30605;SDS011;17371;51.328;3.860;2022-08-14T07:18:58;9.77;;;5.67;;
30605;SDS011;17371;51.328;3.860;2022-08-14T07:21:24;10.50;;;5.53;;
30605;SDS011;17371;51.328;3.860;2022-08-14T07:23:50;8.10;;;5.00;;
30605;SDS011;17371;51.328;3.860;2022-08-14T07:26:15;8.80;;;5.07;;
30605;SDS011;17371;51.328;3.860;2022-08-14T07:28:41;8.57;;;4.93;;
30605;SDS011;17371;51.328;3.860;2022-08-14T07:31:07;6.43;;;4.40;;
30605;SDS011;17371;51.328;3.860;2022-08-14T07:33:34;8.32;;;4.80;;
30605;SDS011;17371;51.328;3.860;2022-08-14T07:36:04;8.87;;;4.27;;
30605;SDS011;17371;51.328;3.860;2022-08-14T07:38:31;8.65;;;4.57;;
30605;SDS011;17371;51.328;3.860;2022-08-14T07:40:57;7.28;;;4.65;;
30605;SDS011;17371;51.328;3.860;2022-08-14T07:43:22;8.00;;;4.40;;
30605;SDS011;17371;51.328;3.860;2022-08-14T07:45:48;7.87;;;4.03;;
30605;SDS011;17371;51.328;3.860;2022-08-14T07:48:13;5.68;;;4.20;;
30605;SDS011;17371;51.328;3.860;2022-08-14T07:50:39;6.10;;;3.80;;
30605;SDS011;17371;51.328;3.860;2022-08-14T07:53:04;8.20;;;3.90;;
30605;SDS011;17371;51.328;3.860;2022-08-14T07:55:31;9.93;;;3.70;;
30605;SDS011;17371;51.328;3.860;2022-08-14T07:57:57;5.18;;;3.38;;
30605;SDS011;17371;51.328;3.860;2022-08-14T08:00:23;5.10;;;3.80;;
30605;SDS011;17371;51.328;3.860;2022-08-14T08:02:50;6.30;;;3.70;;
30605;SDS011;17371;51.328;3.860;2022-08-14T08:05:18;8.67;;;3.47;;
30605;SDS011;17371;51.328;3.860;2022-08-14T08:07:45;7.65;;;3.47;;
30605;SDS011;17371;51.328;3.860;2022-08-14T08:10:12;6.75;;;3.40;;
30605;SDS011;17371;51.328;3.860;2022-08-14T08:12:40;5.22;;;3.30;;
30605;SDS011;17371;51.328;3.860;2022-08-14T08:15:06;5.63;;;3.55;;
30605;SDS011;17371;51.328;3.860;2022-08-14T08:17:32;8.07;;;3.30;;
30605;SDS011;17371;51.328;3.860;2022-08-14T08:19:59;5.15;;;3.20;;
30605;SDS011;17371;51.328;3.860;2022-08-14T08:22:24;5.17;;;3.23;;
30605;SDS011;17371;51.328;3.860;2022-08-14T08:24:50;6.60;;;3.38;;
30605;SDS011;17371;51.328;3.860;2022-08-14T08:27:15;5.10;;;3.23;;
30605;SDS011;17371;51.328;3.860;2022-08-14T08:29:42;5.40;;;3.07;;
30605;SDS011;17371;51.328;3.860;2022-08-14T08:32:08;4.63;;;2.97;;
30605;SDS011;17371;51.328;3.860;2022-08-14T08:34:41;6.73;;;3.10;;
30605;SDS011;17371;51.328;3.860;2022-08-14T08:37:07;5.47;;;2.77;;
30605;SDS011;17371;51.328;3.860;2022-08-14T08:39:40;7.23;;;3.00;;
30605;SDS011;17371;51.328;3.860;2022-08-14T08:42:07;5.13;;;3.00;;
30605;SDS011;17371;51.328;3.860;2022-08-14T08:44:32;5.32;;;3.30;;
30605;SDS011;17371;51.328;3.860;2022-08-14T08:46:59;5.17;;;2.87;;
30605;SDS011;17371;51.328;3.860;2022-08-14T08:49:33;3.90;;;2.90;;
30605;SDS011;17371;51.328;3.860;2022-08-14T08:52:00;3.97;;;2.93;;
30605;SDS011;17371;51.328;3.860;2022-08-14T08:54:25;4.68;;;2.90;;
30605;SDS011;17371;51.328;3.860;2022-08-14T08:56:51;5.43;;;2.83;;
30605;SDS011;17371;51.328;3.860;2022-08-14T08:59:17;6.80;;;2.70;;
30605;SDS011;17371;51.328;3.860;2022-08-14T09:01:46;4.17;;;2.83;;
30605;SDS011;17371;51.328;3.860;2022-08-14T09:04:13;4.20;;;2.50;;
30605;SDS011;17371;51.328;3.860;2022-08-14T09:06:42;5.45;;;2.85;;
30605;SDS011;17371;51.328;3.860;2022-08-14T09:09:15;5.38;;;2.70;;
30605;SDS011;17371;51.328;3.860;2022-08-14T09:11:41;5.47;;;2.38;;
30605;SDS011;17371;51.328;3.860;2022-08-14T09:14:07;8.90;;;2.73;;
30605;SDS011;17371;51.328;3.860;2022-08-14T09:16:32;5.77;;;2.43;;
30605;SDS011;17371;51.328;3.860;2022-08-14T09:18:58;5.53;;;2.80;;
30605;SDS011;17371;51.328;3.860;2022-08-14T09:21:24;4.13;;;2.58;;
30605;SDS011;17371;51.328;3.860;2022-08-14T09:23:51;5.10;;;2.50;;
30605;SDS011;17371;51.328;3.860;2022-08-14T09:26:17;3.20;;;2.58;;
30605;SDS011;17371;51.328;3.860;2022-08-14T09:28:42;3.80;;;2.73;;
30605;SDS011;17371;51.328;3.860;2022-08-14T09:31:07;4.47;;;2.55;;
30605;SDS011;17371;51.328;3.860;2022-08-14T09:33:45;7.40;;;2.40;;
30605;SDS011;17371;51.328;3.860;2022-08-14T09:36:22;3.78;;;2.53;;
30605;SDS011;17371;51.328;3.860;2022-08-14T09:38:56;3.47;;;2.33;;
30605;SDS011;17371;51.328;3.860;2022-08-14T09:41:29;5.20;;;2.37;;
30605;SDS011;17371;51.328;3.860;2022-08-14T09:44:02;2.97;;;2.63;;
30605;SDS011;17371;51.328;3.860;2022-08-14T09:46:30;5.82;;;2.72;;
30605;SDS011;17371;51.328;3.860;2022-08-14T09:48:58;5.87;;;2.60;;
30605;SDS011;17371;51.328;3.860;2022-08-14T09:51:25;5.63;;;2.60;;
30605;SDS011;17371;51.328;3.860;2022-08-14T09:53:58;5.03;;;2.60;;
30605;SDS011;17371;51.328;3.860;2022-08-14T09:56:25;5.43;;;2.60;;
30605;SDS011;17371;51.328;3.860;2022-08-14T09:58:50;3.03;;;2.30;;
30605;SDS011;17371;51.328;3.860;2022-08-14T10:01:17;3.13;;;2.30;;
30605;SDS011;17371;51.328;3.860;2022-08-14T10:03:48;6.20;;;2.50;;
30605;SDS011;17371;51.328;3.860;2022-08-14T10:06:15;4.32;;;2.30;;
30605;SDS011;17371;51.328;3.860;2022-08-14T10:08:45;2.75;;;2.25;;
30605;SDS011;17371;51.328;3.860;2022-08-14T10:11:12;3.57;;;2.50;;
30605;SDS011;17371;51.328;3.860;2022-08-14T10:13:39;3.83;;;2.67;;
30605;SDS011;17371;51.328;3.860;2022-08-14T10:16:04;5.30;;;2.10;;
30605;SDS011;17371;51.328;3.860;2022-08-14T10:18:30;4.93;;;2.20;;
30605;SDS011;17371;51.328;3.860;2022-08-14T10:20:57;4.85;;;2.13;;
30605;SDS011;17371;51.328;3.860;2022-08-14T10:23:24;3.37;;;2.40;;
30605;SDS011;17371;51.328;3.860;2022-08-14T10:25:56;4.15;;;2.80;;
30605;SDS011;17371;51.328;3.860;2022-08-14T10:28:22;3.78;;;2.50;;
30605;SDS011;17371;51.328;3.860;2022-08-14T10:30:48;3.43;;;2.43;;
30605;SDS011;17371;51.328;3.860;2022-08-14T10:33:24;3.10;;;2.47;;
30605;SDS011;17371;51.328;3.860;2022-08-14T10:35:50;5.35;;;2.60;;
30605;SDS011;17371;51.328;3.860;2022-08-14T10:38:24;6.10;;;2.73;;
30605;SDS011;17371;51.328;3.860;2022-08-14T10:40:54;4.50;;;2.80;;
30605;SDS011;17371;51.328;3.860;2022-08-14T10:43:20;5.88;;;3.00;;
30605;SDS011;17371;51.328;3.860;2022-08-14T10:45:57;6.22;;;2.88;;
30605;SDS011;17371;51.328;3.860;2022-08-14T10:48:23;6.50;;;2.80;;
30605;SDS011;17371;51.328;3.860;2022-08-14T10:50:48;4.77;;;2.70;;
30605;SDS011;17371;51.328;3.860;2022-08-14T10:53:14;4.73;;;2.90;;
30605;SDS011;17371;51.328;3.860;2022-08-14T10:55:39;7.40;;;3.40;;
30605;SDS011;17371;51.328;3.860;2022-08-14T10:58:07;4.70;;;3.30;;
30605;SDS011;17371;51.328;3.860;2022-08-14T11:00:33;4.18;;;3.00;;
30605;SDS011;17371;51.328;3.860;2022-08-14T11:02:59;6.37;;;3.10;;
30605;SDS011;17371;51.328;3.860;2022-08-14T11:05:25;8.00;;;3.50;;
30605;SDS011;17371;51.328;3.860;2022-08-14T11:07:55;5.17;;;3.07;;
30605;SDS011;17371;51.328;3.860;2022-08-14T11:10:22;6.97;;;3.10;;
30605;SDS011;17371;51.328;3.860;2022-08-14T11:12:49;3.92;;;2.90;;
30605;SDS011;17371;51.328;3.860;2022-08-14T11:15:16;5.15;;;2.90;;
30605;SDS011;17371;51.328;3.860;2022-08-14T11:17:43;6.70;;;2.90;;
30605;SDS011;17371;51.328;3.860;2022-08-14T11:20:09;6.23;;;2.63;;
30605;SDS011;17371;51.328;3.860;2022-08-14T11:22:37;7.30;;;2.55;;
30605;SDS011;17371;51.328;3.860;2022-08-14T11:25:04;11.20;;;2.00;;
30605;SDS011;17371;51.328;3.860;2022-08-14T11:27:31;4.70;;;2.17;;
30605;SDS011;17371;51.328;3.860;2022-08-14T11:29:59;3.78;;;2.20;;
30605;SDS011;17371;51.328;3.860;2022-08-14T11:32:26;5.25;;;2.10;;
30605;SDS011;17371;51.328;3.860;2022-08-14T11:34:52;6.22;;;2.28;;
30605;SDS011;17371;51.328;3.860;2022-08-14T11:37:17;9.73;;;2.33;;
30605;SDS011;17371;51.328;3.860;2022-08-14T11:39:43;4.63;;;2.30;;
30605;SDS011;17371;51.328;3.860;2022-08-14T11:42:17;4.17;;;2.20;;
30605;SDS011;17371;51.328;3.860;2022-08-14T11:44:43;3.70;;;2.42;;
30605;SDS011;17371;51.328;3.860;2022-08-14T11:47:09;2.50;;;1.90;;
30605;SDS011;17371;51.328;3.860;2022-08-14T11:49:36;4.73;;;2.10;;
30605;SDS011;17371;51.328;3.860;2022-08-14T11:52:02;6.35;;;1.98;;
30605;SDS011;17371;51.328;3.860;2022-08-14T11:54:27;6.38;;;2.00;;
30605;SDS011;17371;51.328;3.860;2022-08-14T11:56:54;7.70;;;2.10;;
30605;SDS011;17371;51.328;3.860;2022-08-14T11:59:19;3.83;;;1.83;;
30605;SDS011;17371;51.328;3.860;2022-08-14T12:01:45;4.03;;;1.93;;
30605;SDS011;17371;51.328;3.860;2022-08-14T12:04:11;9.80;;;2.00;;
30605;SDS011;17371;51.328;3.860;2022-08-14T12:06:45;3.80;;;1.90;;
30605;SDS011;17371;51.328;3.860;2022-08-14T12:09:11;3.78;;;2.20;;
30605;SDS011;17371;51.328;3.860;2022-08-14T12:11:37;2.73;;;1.77;;
30605;SDS011;17371;51.328;3.860;2022-08-14T12:14:05;3.03;;;2.10;;
30605;SDS011;17371;51.328;3.860;2022-08-14T12:16:31;2.27;;;1.90;;
30605;SDS011;17371;51.328;3.860;2022-08-14T12:18:56;4.15;;;1.75;;
30605;SDS011;17371;51.328;3.860;2022-08-14T12:21:22;4.07;;;1.80;;
30605;SDS011;17371;51.328;3.860;2022-08-14T12:24:01;14.32;;;3.15;;
30605;SDS011;17371;51.328;3.860;2022-08-14T12:26:27;8.07;;;2.28;;
30605;SDS011;17371;51.328;3.860;2022-08-14T12:29:02;5.93;;;2.00;;
30605;SDS011;17371;51.328;3.860;2022-08-14T12:31:28;5.65;;;1.90;;
30605;SDS011;17371;51.328;3.860;2022-08-14T12:33:55;5.37;;;2.10;;
30605;SDS011;17371;51.328;3.860;2022-08-14T12:36:20;4.53;;;1.90;;
30605;SDS011;17371;51.328;3.860;2022-08-14T12:38:46;7.13;;;2.00;;
30605;SDS011;17371;51.328;3.860;2022-08-14T12:41:13;3.30;;;2.00;;
30605;SDS011;17371;51.328;3.860;2022-08-14T12:43:44;2.47;;;1.88;;
30605;SDS011;17371;51.328;3.860;2022-08-14T12:46:18;5.65;;;1.88;;
30605;SDS011;17371;51.328;3.860;2022-08-14T12:48:45;5.57;;;1.90;;
30605;SDS011;17371;51.328;3.860;2022-08-14T12:51:14;5.13;;;1.92;;
30605;SDS011;17371;51.328;3.860;2022-08-14T12:53:40;8.40;;;1.70;;
30605;SDS011;17371;51.328;3.860;2022-08-14T12:56:05;4.70;;;1.95;;
30605;SDS011;17371;51.328;3.860;2022-08-14T12:58:32;7.20;;;1.83;;
30605;SDS011;17371;51.328;3.860;2022-08-14T13:00:58;3.47;;;1.60;;
30605;SDS011;17371;51.328;3.860;2022-08-14T13:03:25;3.97;;;1.70;;
30605;SDS011;17371;51.328;3.860;2022-08-14T13:05:51;2.15;;;1.42;;
30605;SDS011;17371;51.328;3.860;2022-08-14T13:08:17;6.05;;;1.77;;
30605;SDS011;17371;51.328;3.860;2022-08-14T13:10:42;6.07;;;1.80;;
30605;SDS011;17371;51.328;3.860;2022-08-14T13:13:09;4.28;;;1.75;;
30605;SDS011;17371;51.328;3.860;2022-08-14T13:15:36;4.67;;;1.63;;
30605;SDS011;17371;51.328;3.860;2022-08-14T13:18:02;2.83;;;1.67;;
30605;SDS011;17371;51.328;3.860;2022-08-14T13:20:27;4.85;;;1.80;;
30605;SDS011;17371;51.328;3.860;2022-08-14T13:22:53;5.27;;;1.57;;
30605;SDS011;17371;51.328;3.860;2022-08-14T13:25:19;4.07;;;1.77;;
30605;SDS011;17371;51.328;3.860;2022-08-14T13:27:47;2.28;;;1.63;;
30605;SDS011;17371;51.328;3.860;2022-08-14T13:30:13;4.60;;;1.90;;
30605;SDS011;17371;51.328;3.860;2022-08-14T13:32:41;3.55;;;1.77;;
30605;SDS011;17371;51.328;3.860;2022-08-14T13:35:06;2.90;;;1.80;;
30605;SDS011;17371;51.328;3.860;2022-08-14T13:37:32;3.20;;;1.77;;
30605;SDS011;17371;51.328;3.860;2022-08-14T13:39:58;2.83;;;1.80;;
30605;SDS011;17371;51.328;3.860;2022-08-14T13:42:24;4.33;;;1.90;;
30605;SDS011;17371;51.328;3.860;2022-08-14T13:44:51;2.72;;;1.90;;
30605;SDS011;17371;51.328;3.860;2022-08-14T13:47:17;6.43;;;2.00;;
30605;SDS011;17371;51.328;3.860;2022-08-14T13:49:43;4.50;;;2.00;;
30605;SDS011;17371;51.328;3.860;2022-08-14T13:52:09;3.38;;;1.95;;
30605;SDS011;17371;51.328;3.860;2022-08-14T13:54:34;2.37;;;1.80;;
30605;SDS011;17371;51.328;3.860;2022-08-14T13:57:00;4.23;;;1.83;;
30605;SDS011;17371;51.328;3.860;2022-08-14T13:59:27;3.47;;;1.63;;
30605;SDS011;17371;51.328;3.860;2022-08-14T14:01:53;3.60;;;1.80;;
30605;SDS011;17371;51.328;3.860;2022-08-14T14:04:19;2.80;;;1.75;;
30605;SDS011;17371;51.328;3.860;2022-08-14T14:06:49;4.40;;;1.90;;
30605;SDS011;17371;51.328;3.860;2022-08-14T14:09:15;2.25;;;1.60;;
30605;SDS011;17371;51.328;3.860;2022-08-14T14:11:45;2.55;;;1.75;;
30605;SDS011;17371;51.328;3.860;2022-08-14T14:14:11;3.97;;;1.70;;
30605;SDS011;17371;51.328;3.860;2022-08-14T14:16:37;4.20;;;1.70;;
30605;SDS011;17371;51.328;3.860;2022-08-14T14:19:02;4.53;;;1.67;;
30605;SDS011;17371;51.328;3.860;2022-08-14T14:21:28;3.70;;;1.73;;
30605;SDS011;17371;51.328;3.860;2022-08-14T14:23:55;4.15;;;2.10;;
30605;SDS011;17371;51.328;3.860;2022-08-14T14:26:20;5.20;;;1.80;;
30605;SDS011;17371;51.328;3.860;2022-08-14T14:28:46;2.90;;;1.77;;
30605;SDS011;17371;51.328;3.860;2022-08-14T14:31:12;5.10;;;1.90;;
30605;SDS011;17371;51.328;3.860;2022-08-14T14:33:41;3.43;;;1.90;;
30605;SDS011;17371;51.328;3.860;2022-08-14T14:36:08;2.92;;;1.90;;